Threlkel, Kentucky
Current Conditions -  °F | °C
As of 6:53 AM on Thursday 27 Nov 2014 (Local Time) from KBWG Reporting Station
Overcast Overcast  
Wind Chill: 29°   Ceiling: 1300
Heat Index: 35°   Visibility: 7mi
Dew Point: 30°   Wind: 8mph
Humidity: 82%   Direction: 320°NW
Pressure: 30.3"   Gusts: NA
Location:  37.2302°N, 86.4364°W
Report Text: KBWG 271253Z AUTO 32007KT 7SM BKN013 OVC020 02/M01 A3030 RMK AO2 SLP265 T00171011
Loading
Personal Weather Stations






























Interactive Weather Map New forecast layout! Learn more

10-Day Weather Forecast

Advertisements
Track Severe Weather on mobile